Time;durP1;ratioP1;P1;durP2;ratioP2;P2;SDS_P1;SDS_P2;PMS_P1;PMS_P2;Temp;Humidity;BMP_temperature;BMP_pressure;BME280_temperature;BME280_humidity;BME280_pressure;Samples;Min_cycle;Max_cycle;Signal;HPM_P1;HPM_P2
2021/10/17 00:02:19;;;;;;;39.45;12.82;;;8.80;99.90;;;;;;5013329;28;20422;-78
2021/10/17 00:04:45;;;;;;;26.65;12.65;;;8.90;99.90;;;;;;5012469;28;20032;-79
2021/10/17 00:07:11;;;;;;;24.98;11.65;;;8.90;99.90;;;;;;5014876;28;20036;-78
2021/10/17 00:09:39;;;;;;;23.45;11.30;;;8.90;99.90;;;;;;5017204;28;20025;-79
2021/10/17 00:12:06;;;;;;;26.15;12.40;;;8.90;99.90;;;;;;5032925;28;20029;-79
2021/10/17 00:14:32;;;;;;;23.33;11.13;;;8.90;99.90;;;;;;5025254;28;20030;-78
2021/10/17 00:16:58;;;;;;;23.00;11.35;;;8.90;99.90;;;;;;5013038;28;20025;-79
2021/10/17 00:19:24;;;;;;;21.65;11.27;;;9.00;99.90;;;;;;5013326;28;20364;-78
2021/10/17 00:21:49;;;;;;;25.45;12.15;;;8.90;99.90;;;;;;5035122;28;20033;-78
2021/10/17 00:24:15;;;;;;;23.27;11.40;;;9.00;99.90;;;;;;5035679;28;20037;-78
2021/10/17 00:26:40;;;;;;;22.83;10.80;;;9.00;99.90;;;;;;5034730;28;20457;-79
2021/10/17 00:29:06;;;;;;;20.98;11.02;;;8.90;99.90;;;;;;5025895;28;20037;-79
2021/10/17 00:31:32;;;;;;;20.48;10.77;;;8.90;99.90;;;;;;5044846;28;20075;-78
2021/10/17 00:33:58;;;;;;;28.88;12.63;;;9.00;99.90;;;;;;5036375;28;20021;-79
2021/10/17 00:36:26;;;;;;;23.83;11.15;;;9.00;99.90;;;;;;5020275;28;20040;-79
2021/10/17 00:38:52;;;;;;;26.23;12.68;;;9.00;99.90;;;;;;5035132;28;20075;-78
2021/10/17 00:41:18;;;;;;;29.35;12.15;;;9.00;99.90;;;;;;5016230;28;20104;-78
2021/10/17 00:43:45;;;;;;;27.83;12.38;;;9.00;99.90;;;;;;5016454;28;20026;-78
2021/10/17 00:46:19;;;;;;;32.17;12.43;;;9.00;99.90;;;;;;5027986;28;20036;-78
2021/10/17 00:48:45;;;;;;;27.33;12.07;;;9.10;99.90;;;;;;5034676;28;20083;-78
2021/10/17 00:51:11;;;;;;;29.85;13.43;;;9.10;99.90;;;;;;5030948;28;20025;-77
2021/10/17 00:53:37;;;;;;;31.25;13.25;;;9.20;99.90;;;;;;5015839;28;20114;-78
2021/10/17 00:56:03;;;;;;;27.58;13.30;;;9.10;99.90;;;;;;5015115;28;20140;-77
2021/10/17 00:58:29;;;;;;;27.80;12.65;;;9.20;99.90;;;;;;5016032;28;20455;-78
2021/10/17 01:00:54;;;;;;;27.77;13.48;;;9.20;99.90;;;;;;5035366;28;20022;-79
2021/10/17 01:03:20;;;;;;;28.55;13.63;;;9.20;99.90;;;;;;5035246;28;20060;-77
2021/10/17 01:05:47;;;;;;;27.80;13.05;;;9.20;99.90;;;;;;5035307;28;20060;-79
2021/10/17 01:08:13;;;;;;;25.77;12.70;;;9.20;99.90;;;;;;5033392;28;20420;-78
2021/10/17 01:10:39;;;;;;;24.92;12.70;;;9.20;99.90;;;;;;5031036;28;20121;-79
2021/10/17 01:13:04;;;;;;;31.58;13.23;;;9.30;99.90;;;;;;5035293;28;20063;-77
2021/10/17 01:15:30;;;;;;;26.58;12.15;;;9.30;99.90;;;;;;5036593;28;20026;-78
2021/10/17 01:17:56;;;;;;;28.55;12.85;;;9.30;99.90;;;;;;5034717;28;20026;-78
2021/10/17 01:20:22;;;;;;;25.92;13.40;;;9.30;99.90;;;;;;5036202;28;20413;-78
2021/10/17 01:22:49;;;;;;;28.73;13.20;;;9.30;99.90;;;;;;5035264;28;20038;-78
2021/10/17 01:25:15;;;;;;;25.23;12.55;;;9.30;99.90;;;;;;5022917;28;20037;-77
2021/10/17 01:27:41;;;;;;;30.90;14.25;;;9.30;99.90;;;;;;5021253;28;20099;-79
2021/10/17 01:30:08;;;;;;;28.05;12.82;;;9.30;99.90;;;;;;5023507;28;20064;-78
2021/10/17 01:32:34;;;;;;;30.75;14.00;;;9.30;99.90;;;;;;5014997;28;20036;-77
2021/10/17 01:35:00;;;;;;;30.50;12.68;;;9.30;99.90;;;;;;5016918;28;20026;-79
2021/10/17 01:37:26;;;;;;;29.75;13.88;;;9.40;99.90;;;;;;5034331;28;20433;-77
2021/10/17 01:39:51;;;;;;;34.58;13.90;;;9.40;99.90;;;;;;5023346;28;20112;-78
2021/10/17 01:42:17;;;;;;;27.58;12.98;;;9.40;99.90;;;;;;5017787;28;20037;-78
2021/10/17 01:44:43;;;;;;;26.52;12.82;;;9.40;99.90;;;;;;5034702;28;20033;-79
2021/10/17 01:47:09;;;;;;;31.45;13.82;;;9.40;99.90;;;;;;5020609;28;20398;-78
2021/10/17 01:49:36;;;;;;;29.55;13.43;;;9.50;99.90;;;;;;5016509;28;20034;-78
2021/10/17 01:52:04;;;;;;;27.88;13.00;;;9.50;99.90;;;;;;5032781;28;20094;-77
2021/10/17 01:54:30;;;;;;;30.65;13.63;;;9.50;99.90;;;;;;5015873;28;20204;-78
2021/10/17 01:56:56;;;;;;;28.50;13.38;;;9.40;99.90;;;;;;5014132;28;20483;-78
2021/10/17 01:59:21;;;;;;;28.15;13.05;;;9.40;99.90;;;;;;5028497;28;20030;-77
2021/10/17 02:01:47;;;;;;;35.35;13.50;;;9.50;99.90;;;;;;5030219;28;20470;-79
2021/10/17 02:04:12;;;;;;;26.70;12.63;;;9.50;99.90;;;;;;5015318;28;20394;-78
2021/10/17 02:06:38;;;;;;;30.63;14.35;;;9.60;99.90;;;;;;5018001;28;20402;-78
2021/10/17 02:09:04;;;;;;;32.47;13.55;;;9.60;99.90;;;;;;5033893;28;20025;-79
2021/10/17 02:11:29;;;;;;;32.97;14.45;;;9.60;99.90;;;;;;5014454;28;20523;-78
2021/10/17 02:13:55;;;;;;;31.27;12.98;;;9.60;99.90;;;;;;5031359;28;20060;-78
2021/10/17 02:16:21;;;;;;;32.58;14.00;;;9.60;99.90;;;;;;5034832;28;20080;-77
2021/10/17 02:18:47;;;;;;;29.00;14.10;;;9.60;99.90;;;;;;5020890;28;20419;-78
2021/10/17 02:21:12;;;;;;;34.45;14.55;;;9.60;99.90;;;;;;5017483;28;20030;-78
2021/10/17 02:23:38;;;;;;;34.65;14.38;;;9.60;99.90;;;;;;5031217;28;20029;-77
2021/10/17 02:26:04;;;;;;;28.83;13.60;;;9.70;99.90;;;;;;5034626;28;20556;-78
2021/10/17 02:28:30;;;;;;;33.35;14.13;;;9.70;99.90;;;;;;5031212;28;20021;-78
2021/10/17 02:30:56;;;;;;;31.70;14.07;;;9.70;99.90;;;;;;5015033;28;20033;-78
2021/10/17 02:33:21;;;;;;;35.35;14.52;;;9.60;99.90;;;;;;5014207;28;20041;-78
2021/10/17 02:35:47;;;;;;;29.45;14.20;;;9.60;99.90;;;;;;5022087;28;20026;-78
2021/10/17 02:38:13;;;;;;;31.98;14.80;;;9.60;99.90;;;;;;5034953;28;20060;-78
2021/10/17 02:40:38;;;;;;;32.83;13.88;;;9.70;99.90;;;;;;5025621;28;20029;-77
2021/10/17 02:43:05;;;;;;;32.45;14.43;;;9.70;99.90;;;;;;5032640;28;20025;-78
2021/10/17 02:45:31;;;;;;;32.10;14.57;;;9.60;99.90;;;;;;5017229;28;20036;-78
2021/10/17 02:47:56;;;;;;;30.02;14.00;;;9.60;99.90;;;;;;5012630;28;20026;-78
2021/10/17 02:50:22;;;;;;;36.22;14.57;;;9.70;99.90;;;;;;5023903;28;20021;-77
2021/10/17 02:52:48;;;;;;;30.27;14.02;;;9.70;99.90;;;;;;5027507;28;20427;-79
2021/10/17 02:55:13;;;;;;;30.20;13.43;;;9.70;99.90;;;;;;5012582;28;20554;-77
2021/10/17 02:57:39;;;;;;;30.92;13.75;;;9.70;99.90;;;;;;5017377;28;20120;-77
2021/10/17 03:00:05;;;;;;;29.10;13.80;;;9.70;99.90;;;;;;5018197;28;20041;-78
2021/10/17 03:02:31;;;;;;;33.78;14.88;;;9.70;99.90;;;;;;5012668;28;20537;-77
2021/10/17 03:04:56;;;;;;;36.13;15.50;;;9.70;99.90;;;;;;5012775;28;20030;-78
2021/10/17 03:07:22;;;;;;;33.60;15.38;;;9.70;99.90;;;;;;5023174;28;20029;-78
2021/10/17 03:09:47;;;;;;;41.00;17.05;;;9.70;99.90;;;;;;5020140;28;20026;-78
2021/10/17 03:12:13;;;;;;;29.67;15.15;;;9.80;99.90;;;;;;5019764;28;20070;-78
2021/10/17 03:14:39;;;;;;;34.90;14.48;;;9.80;99.90;;;;;;5032315;28;20122;-77
2021/10/17 03:17:08;;;;;;;36.65;15.75;;;9.80;99.90;;;;;;5031093;28;20037;-78
2021/10/17 03:19:33;;;;;;;43.90;17.10;;;9.80;99.90;;;;;;5013582;28;20026;-78
2021/10/17 03:21:59;;;;;;;41.53;17.25;;;9.80;99.90;;;;;;5012646;28;20487;-77
2021/10/17 03:24:25;;;;;;;42.08;17.67;;;9.80;99.90;;;;;;5013007;28;20029;-77
2021/10/17 03:26:50;;;;;;;37.92;16.27;;;9.80;99.90;;;;;;5015059;28;20030;-79
2021/10/17 03:29:16;;;;;;;36.72;16.20;;;9.90;99.90;;;;;;5017690;28;20025;-79
2021/10/17 03:31:43;;;;;;;36.80;17.38;;;9.90;99.90;;;;;;5032881;28;20106;-78
2021/10/17 03:34:08;;;;;;;44.28;17.73;;;9.90;99.90;;;;;;5017390;28;20097;-79
2021/10/17 03:36:34;;;;;;;40.38;17.88;;;9.90;99.90;;;;;;5015079;28;20040;-78
2021/10/17 03:39:00;;;;;;;37.28;17.67;;;9.90;99.90;;;;;;5032155;28;20022;-78
2021/10/17 03:41:26;;;;;;;36.08;17.60;;;10.00;99.90;;;;;;5014391;28;20029;-78
2021/10/17 03:43:51;;;;;;;36.05;16.38;;;9.90;99.90;;;;;;5029699;28;20038;-80
2021/10/17 03:46:19;;;;;;;32.50;15.27;;;9.90;99.90;;;;;;5013980;28;20048;-77
2021/10/17 03:48:45;;;;;;;30.17;14.77;;;9.90;99.90;;;;;;5023967;28;20017;-78
2021/10/17 03:51:11;;;;;;;33.45;15.15;;;9.90;99.90;;;;;;5016289;28;20282;-78
2021/10/17 03:53:37;;;;;;;34.03;15.75;;;10.00;99.90;;;;;;5023890;28;20030;-77
2021/10/17 03:56:03;;;;;;;34.22;15.20;;;9.90;99.90;;;;;;5035025;28;20053;-77
2021/10/17 03:58:28;;;;;;;34.58;14.98;;;9.90;99.90;;;;;;5036768;28;20033;-77
2021/10/17 04:00:54;;;;;;;31.60;14.63;;;10.00;99.90;;;;;;5023774;28;20026;-78
2021/10/17 04:03:20;;;;;;;31.17;14.55;;;10.00;99.90;;;;;;5018041;28;20057;-77
2021/10/17 04:05:45;;;;;;;29.45;14.18;;;10.00;99.90;;;;;;5016463;28;20026;-76
2021/10/17 04:08:11;;;;;;;32.72;13.95;;;10.00;99.90;;;;;;5017260;28;20088;-76
2021/10/17 04:10:37;;;;;;;29.58;13.60;;;10.00;99.90;;;;;;5022539;28;20025;-77
2021/10/17 04:13:03;;;;;;;34.40;13.95;;;10.00;99.90;;;;;;5028130;28;20466;-77
2021/10/17 04:15:29;;;;;;;28.80;14.00;;;10.00;99.90;;;;;;5035859;28;20459;-77
2021/10/17 04:17:54;;;;;;;31.88;13.13;;;10.00;99.90;;;;;;5035171;28;20034;-78
2021/10/17 04:20:20;;;;;;;30.75;13.40;;;10.00;99.90;;;;;;5036803;28;20030;-78
2021/10/17 04:22:46;;;;;;;30.05;13.35;;;10.10;99.90;;;;;;5022966;28;20072;-77
2021/10/17 04:25:11;;;;;;;32.00;14.05;;;10.10;99.90;;;;;;5015644;28;20030;-78
2021/10/17 04:27:37;;;;;;;29.10;14.20;;;10.00;99.90;;;;;;5021873;28;20037;-78
2021/10/17 04:30:05;;;;;;;32.55;13.85;;;10.00;99.90;;;;;;5034005;28;20030;-78
2021/10/17 04:32:31;;;;;;;35.53;14.07;;;10.00;99.90;;;;;;5029485;28;20425;-76
2021/10/17 04:34:57;;;;;;;35.75;15.27;;;10.00;99.90;;;;;;5015915;28;20036;-77
2021/10/17 04:37:22;;;;;;;27.77;14.25;;;10.10;99.90;;;;;;5017232;28;20112;-76
2021/10/17 04:39:48;;;;;;;29.50;13.02;;;10.00;99.90;;;;;;5023588;28;20034;-76
2021/10/17 04:42:14;;;;;;;30.58;13.38;;;10.00;99.90;;;;;;5017946;28;20030;-76
2021/10/17 04:44:39;;;;;;;35.33;13.95;;;10.00;99.90;;;;;;5031046;28;20049;-76
2021/10/17 04:47:05;;;;;;;37.50;13.98;;;10.00;99.90;;;;;;5024250;28;20026;-77
2021/10/17 04:49:31;;;;;;;34.80;14.82;;;10.00;99.90;;;;;;5021807;28;20042;-78
2021/10/17 04:51:57;;;;;;;36.05;13.45;;;9.90;99.90;;;;;;5034924;28;20478;-78
2021/10/17 04:54:23;;;;;;;37.45;14.63;;;9.90;99.90;;;;;;5016981;28;20026;-77
2021/10/17 04:56:48;;;;;;;38.00;14.52;;;9.90;99.90;;;;;;5034124;28;20038;-77
2021/10/17 04:59:16;;;;;;;39.92;15.55;;;9.90;99.90;;;;;;5032713;28;20026;-77
2021/10/17 05:01:42;;;;;;;47.05;14.85;;;9.90;99.90;;;;;;5033837;28;20033;-75
2021/10/17 05:04:08;;;;;;;41.38;15.52;;;9.80;99.90;;;;;;5031552;28;20029;-76
2021/10/17 05:06:34;;;;;;;42.35;15.82;;;9.80;99.90;;;;;;5014557;28;20030;-77
2021/10/17 05:08:59;;;;;;;43.22;15.45;;;9.80;99.90;;;;;;5014458;28;20033;-75
2021/10/17 05:11:25;;;;;;;47.33;15.90;;;9.80;99.90;;;;;;5014500;28;20030;-76
2021/10/17 05:13:52;;;;;;;44.38;15.52;;;9.80;99.90;;;;;;5020317;28;20025;-78
2021/10/17 05:16:17;;;;;;;43.78;15.50;;;9.80;99.90;;;;;;5030855;28;20033;-76
2021/10/17 05:18:43;;;;;;;45.33;15.77;;;9.80;99.90;;;;;;5044693;28;20421;-76
2021/10/17 05:21:09;;;;;;;42.10;15.55;;;9.80;99.90;;;;;;5033569;28;20443;-77
2021/10/17 05:23:35;;;;;;;57.10;15.63;;;9.80;99.90;;;;;;5032971;28;20056;-76
2021/10/17 05:26:03;;;;;;;49.40;13.95;;;9.70;99.90;;;;;;5034269;28;20080;-77
2021/10/17 05:28:29;;;;;;;50.50;15.48;;;9.70;99.90;;;;;;5028292;28;20036;-76
2021/10/17 05:30:55;;;;;;;51.38;15.48;;;9.70;99.90;;;;;;5014858;28;20463;-77
2021/10/17 05:33:21;;;;;;;49.35;15.15;;;9.70;99.90;;;;;;5016002;28;20029;-78
2021/10/17 05:35:46;;;;;;;42.13;14.00;;;9.70;99.90;;;;;;5015535;28;20072;-77
2021/10/17 05:38:12;;;;;;;49.50;14.57;;;9.70;99.90;;;;;;5014194;28;20379;-77
2021/10/17 05:40:38;;;;;;;47.92;15.57;;;9.70;99.90;;;;;;5021787;28;20437;-77
2021/10/17 05:43:04;;;;;;;49.95;14.48;;;9.60;99.90;;;;;;5031084;28;20375;-78
2021/10/17 05:45:30;;;;;;;51.08;14.90;;;9.70;99.90;;;;;;5025343;28;20056;-77
2021/10/17 05:47:55;;;;;;;48.28;14.90;;;9.70;99.90;;;;;;5031896;28;20037;-79
2021/10/17 05:50:21;;;;;;;42.67;14.05;;;9.60;99.90;;;;;;5016160;28;20037;-77
2021/10/17 05:52:47;;;;;;;47.40;14.65;;;9.70;99.90;;;;;;5015327;28;20045;-78
2021/10/17 05:55:12;;;;;;;47.45;14.93;;;9.70;99.90;;;;;;5033416;28;20057;-78
2021/10/17 05:57:38;;;;;;;47.72;13.80;;;9.80;99.90;;;;;;5031873;28;20034;-78
2021/10/17 06:00:08;;;;;;;52.33;14.38;;;9.80;99.90;;;;;;5026326;28;20025;-76
2021/10/17 06:02:33;;;;;;;43.47;13.60;;;9.80;99.90;;;;;;5021280;28;20029;-77
2021/10/17 06:04:59;;;;;;;45.42;12.80;;;9.80;99.90;;;;;;5039751;28;20036;-78
2021/10/17 06:07:24;;;;;;;50.67;14.15;;;9.70;99.90;;;;;;5032305;28;20025;-78
2021/10/17 06:09:50;;;;;;;47.70;14.77;;;9.70;99.90;;;;;;5030084;28;20029;-77
2021/10/17 06:12:16;;;;;;;43.70;13.98;;;9.70;99.90;;;;;;5031857;28;20802;-78
2021/10/17 06:14:41;;;;;;;51.00;15.18;;;9.70;99.90;;;;;;5035187;28;20037;-76
2021/10/17 06:17:07;;;;;;;51.17;14.73;;;9.70;99.90;;;;;;5032978;28;20087;-77
2021/10/17 06:19:33;;;;;;;53.72;16.17;;;9.70;99.90;;;;;;5015115;28;20033;-77
2021/10/17 06:22:03;;;;;;;55.70;14.77;;;9.70;99.90;;;;;;5014586;28;20033;-78
2021/10/17 06:24:30;;;;;;;45.10;15.15;;;9.70;99.90;;;;;;5014176;28;20030;-78
2021/10/17 06:26:56;;;;;;;46.75;14.48;;;9.70;99.90;;;;;;5013880;28;20065;-78
2021/10/17 06:29:21;;;;;;;50.25;14.43;;;9.70;99.90;;;;;;5014357;28;20469;-78
2021/10/17 06:31:47;;;;;;;44.47;13.88;;;9.70;99.90;;;;;;5013717;28;20026;-78
2021/10/17 06:34:12;;;;;;;36.00;12.48;;;9.70;99.90;;;;;;5014042;28;20084;-76
2021/10/17 06:36:38;;;;;;;41.03;12.65;;;9.70;99.90;;;;;;5013238;28;20129;-75
2021/10/17 06:39:04;;;;;;;38.38;11.85;;;9.70;99.90;;;;;;5012568;28;20062;-77
2021/10/17 06:41:29;;;;;;;38.35;12.52;;;9.70;99.90;;;;;;5014469;28;20029;-76
2021/10/17 06:43:55;;;;;;;36.42;11.25;;;9.70;99.90;;;;;;5013588;28;20455;-78
2021/10/17 06:46:20;;;;;;;33.90;11.13;;;9.80;99.90;;;;;;5013351;28;20033;-78
2021/10/17 06:48:46;;;;;;;34.78;11.43;;;9.80;99.90;;;;;;5013987;28;20463;-78
2021/10/17 06:51:12;;;;;;;35.17;11.23;;;9.80;99.90;;;;;;5013069;28;20476;-77
2021/10/17 06:53:37;;;;;;;33.17;11.07;;;9.80;99.90;;;;;;5013129;28;20060;-77
2021/10/17 06:56:03;;;;;;;32.63;10.80;;;9.80;99.90;;;;;;5012605;28;20054;-78
2021/10/17 06:58:30;;;;;;;32.22;11.20;;;9.80;99.90;;;;;;5013508;28;20049;-78
2021/10/17 07:00:56;;;;;;;33.80;10.38;;;9.70;99.90;;;;;;5014252;28;20026;-78
2021/10/17 07:03:21;;;;;;;29.25;10.30;;;9.70;99.90;;;;;;5012730;28;20040;-78
2021/10/17 07:05:47;;;;;;;28.67;10.38;;;9.70;99.90;;;;;;5014424;28;20046;-78
2021/10/17 07:08:12;;;;;;;33.53;11.57;;;9.70;99.90;;;;;;5012954;28;20030;-78
2021/10/17 07:10:38;;;;;;;34.05;10.95;;;9.80;99.90;;;;;;5013269;28;20026;-77
2021/10/17 07:13:03;;;;;;;35.03;10.95;;;9.80;99.90;;;;;;5012404;28;20125;-78
2021/10/17 07:15:29;;;;;;;27.40;10.45;;;9.80;99.90;;;;;;5013125;28;20032;-77
2021/10/17 07:17:55;;;;;;;30.13;10.57;;;9.80;99.90;;;;;;5014023;28;20080;-77
2021/10/17 07:20:20;;;;;;;29.77;9.93;;;9.80;99.90;;;;;;5013588;28;20100;-77
2021/10/17 07:22:46;;;;;;;25.58;9.40;;;9.80;99.90;;;;;;5014324;28;20022;-77
2021/10/17 07:25:12;;;;;;;31.15;10.98;;;9.80;99.90;;;;;;5014250;28;20038;-77
2021/10/17 07:27:37;;;;;;;30.83;10.90;;;9.80;99.90;;;;;;5013490;28;20422;-78
2021/10/17 07:30:05;;;;;;;34.13;11.45;;;9.80;99.90;;;;;;5016338;28;20056;-78
2021/10/17 07:32:30;;;;;;;29.20;11.48;;;9.90;99.90;;;;;;5016952;28;20030;-78
2021/10/17 07:34:56;;;;;;;33.08;11.30;;;9.80;99.90;;;;;;5018108;28;20026;-78
2021/10/17 07:37:21;;;;;;;29.60;10.98;;;9.80;99.90;;;;;;5016580;28;20479;-78
2021/10/17 07:39:47;;;;;;;35.58;11.45;;;9.80;99.90;;;;;;5017459;28;20029;-78
2021/10/17 07:42:13;;;;;;;34.65;11.13;;;9.90;99.90;;;;;;5017587;28;20022;-78
2021/10/17 07:44:38;;;;;;;31.38;11.20;;;9.90;99.90;;;;;;5017878;28;20361;-78
2021/10/17 07:47:05;;;;;;;30.08;10.25;;;10.00;99.90;;;;;;5016264;28;20106;-79
2021/10/17 07:49:31;;;;;;;38.17;11.90;;;10.00;99.90;;;;;;5017734;28;20026;-78
2021/10/17 07:51:57;;;;;;;25.80;10.40;;;10.00;99.90;;;;;;5032967;28;20037;-76
2021/10/17 07:54:23;;;;;;;29.27;10.60;;;10.10;99.90;;;;;;5016633;28;20026;-77
2021/10/17 07:56:49;;;;;;;25.50;9.63;;;10.10;99.90;;;;;;5032497;28;20045;-78
2021/10/17 07:59:14;;;;;;;25.98;10.75;;;10.20;99.90;;;;;;5017257;28;20033;-78
2021/10/17 08:01:40;;;;;;;26.17;10.73;;;10.20;99.90;;;;;;5016125;28;20471;-78
2021/10/17 08:04:06;;;;;;;26.98;9.77;;;10.10;99.90;;;;;;5017026;28;20038;-78
2021/10/17 08:06:31;;;;;;;24.88;9.95;;;10.10;99.90;;;;;;5017272;28;20039;-78
2021/10/17 08:08:57;;;;;;;26.27;9.80;;;10.10;99.90;;;;;;5016897;28;20412;-77
2021/10/17 08:11:23;;;;;;;24.40;9.32;;;10.10;99.90;;;;;;5031931;28;20262;-78
2021/10/17 08:13:48;;;;;;;35.17;10.77;;;10.20;99.90;;;;;;5017193;28;20030;-78
2021/10/17 08:16:14;;;;;;;31.40;10.50;;;10.20;99.90;;;;;;5016148;28;20044;-78
2021/10/17 08:18:39;;;;;;;28.02;10.68;;;10.20;99.90;;;;;;5032697;28;20050;-78
2021/10/17 08:21:05;;;;;;;30.83;10.73;;;10.20;99.90;;;;;;5016352;28;20029;-78
2021/10/17 08:23:31;;;;;;;26.38;10.18;;;10.20;99.90;;;;;;5016876;28;20030;-78
2021/10/17 08:25:56;;;;;;;23.25;10.45;;;10.30;99.90;;;;;;5017256;28;20068;-78
2021/10/17 08:28:22;;;;;;;26.80;10.35;;;10.30;99.90;;;;;;5032169;28;20431;-78
2021/10/17 08:30:50;;;;;;;27.83;11.27;;;10.30;99.90;;;;;;5032036;28;20026;-77
2021/10/17 08:33:17;;;;;;;27.17;9.98;;;10.30;99.90;;;;;;5031774;28;20030;-78
2021/10/17 08:35:43;;;;;;;26.05;10.48;;;10.40;99.90;;;;;;5032070;28;20033;-78
2021/10/17 08:38:09;;;;;;;26.73;10.23;;;10.30;99.90;;;;;;5031357;28;20045;-79
2021/10/17 08:40:35;;;;;;;22.55;9.57;;;10.30;99.90;;;;;;5031260;28;20022;-79
2021/10/17 08:43:00;;;;;;;21.90;9.10;;;10.30;99.90;;;;;;5031908;28;20056;-78
2021/10/17 08:45:27;;;;;;;22.90;9.98;;;10.30;99.90;;;;;;5015807;28;20455;-78
2021/10/17 08:47:52;;;;;;;24.58;10.10;;;10.30;99.90;;;;;;5031798;28;20033;-79
2021/10/17 08:50:18;;;;;;;20.98;10.38;;;10.30;99.90;;;;;;5014066;28;20018;-78
2021/10/17 08:52:45;;;;;;;17.55;8.70;;;10.30;99.90;;;;;;5015478;28;20447;-79
2021/10/17 08:55:12;;;;;;;21.38;9.23;;;10.40;99.90;;;;;;5031143;28;20050;-78
2021/10/17 08:57:38;;;;;;;20.55;9.30;;;10.40;99.90;;;;;;5031881;28;20038;-78
2021/10/17 09:00:24;;;;;;;23.38;10.45;;;10.40;99.90;;;;;;5016307;28;20041;-79
2021/10/17 09:02:50;;;;;;;20.83;9.70;;;10.50;99.90;;;;;;5015842;28;20022;-79
2021/10/17 09:05:16;;;;;;;20.67;9.07;;;10.50;99.90;;;;;;5031403;28;20029;-79
2021/10/17 09:07:51;;;;;;;19.27;9.25;;;10.50;99.90;;;;;;5031406;28;20103;-78
2021/10/17 09:10:17;;;;;;;20.70;9.50;;;10.50;99.90;;;;;;5015827;28;20033;-78
2021/10/17 09:12:46;;;;;;;20.20;9.48;;;10.60;99.90;;;;;;5016245;28;20455;-78
2021/10/17 09:15:18;;;;;;;22.98;10.07;;;10.60;99.90;;;;;;5030839;28;20030;-80
2021/10/17 09:18:20;;;;;;;23.27;10.43;;;10.60;99.90;;;;;;5015037;28;20036;-78
2021/10/17 09:20:46;;;;;;;21.02;9.50;;;10.60;99.90;;;;;;5018617;28;20030;-79
2021/10/17 09:23:12;;;;;;;22.30;9.95;;;10.60;99.90;;;;;;5030879;28;20061;-79
2021/10/17 09:25:38;;;;;;;23.40;10.13;;;10.60;99.90;;;;;;5015590;28;20132;-78
2021/10/17 09:28:16;;;;;;;21.67;10.52;;;10.60;99.90;;;;;;5015134;28;20463;-77
2021/10/17 09:30:55;;;;;;;23.23;10.90;;;10.60;99.90;;;;;;5017091;28;20026;-78
2021/10/17 09:33:21;;;;;;;23.45;11.20;;;10.60;99.90;;;;;;5013877;28;20030;-77
2021/10/17 09:35:47;;;;;;;22.00;9.93;;;10.60;99.90;;;;;;5016196;28;20374;-77
2021/10/17 09:38:15;;;;;;;26.23;10.38;;;10.60;99.90;;;;;;5015078;28;20038;-78
2021/10/17 09:40:42;;;;;;;20.48;10.35;;;10.60;99.90;;;;;;5030095;28;20033;-79
2021/10/17 09:43:15;;;;;;;25.50;10.57;;;10.70;99.90;;;;;;5029612;28;20026;-78
2021/10/17 09:45:41;;;;;;;26.05;12.20;;;10.80;99.90;;;;;;5014807;28;20018;-79
2021/10/17 09:48:08;;;;;;;25.55;11.45;;;10.70;99.90;;;;;;5030627;28;20049;-79
2021/10/17 09:50:34;;;;;;;27.30;11.57;;;10.70;99.90;;;;;;5015147;28;20033;-79
2021/10/17 09:53:08;;;;;;;21.38;10.88;;;10.80;99.90;;;;;;5030802;28;20032;-79
2021/10/17 09:55:34;;;;;;;25.15;11.48;;;10.80;99.90;;;;;;5013016;28;20045;-79
2021/10/17 09:58:03;;;;;;;23.58;11.43;;;10.80;99.90;;;;;;5013874;28;20093;-79
2021/10/17 10:00:32;;;;;;;24.13;11.35;;;10.90;99.90;;;;;;5013494;28;20102;-80
2021/10/17 10:02:59;;;;;;;22.58;11.25;;;10.90;99.90;;;;;;5030820;28;20085;-79
2021/10/17 10:05:28;;;;;;;24.95;11.90;;;10.90;99.90;;;;;;5013303;28;20022;-79
2021/10/17 10:08:01;;;;;;;22.38;11.25;;;10.90;99.90;;;;;;5014609;28;20026;-78
2021/10/17 10:10:31;;;;;;;21.98;10.50;;;10.90;99.90;;;;;;5013250;28;20028;-78
2021/10/17 10:13:01;;;;;;;22.65;11.25;;;11.00;99.90;;;;;;5013687;28;20026;-78
2021/10/17 10:15:27;;;;;;;24.40;11.52;;;11.10;99.90;;;;;;5029468;28;20026;-80
2021/10/17 10:17:54;;;;;;;25.85;11.05;;;11.10;99.90;;;;;;5014686;28;20033;-79
2021/10/17 10:20:22;;;;;;;26.95;11.45;;;11.00;99.90;;;;;;5029303;28;20022;-79
2021/10/17 10:22:49;;;;;;;24.55;12.60;;;11.10;99.90;;;;;;5014671;28;20017;-79
2021/10/17 10:25:16;;;;;;;22.23;11.23;;;11.10;99.90;;;;;;5013802;28;20037;-79
2021/10/17 10:27:42;;;;;;;27.17;11.40;;;11.10;99.90;;;;;;5013571;28;20240;-79
2021/10/17 10:30:32;;;;;;;20.77;10.48;;;11.10;99.90;;;;;;5029491;28;20022;-79
2021/10/17 10:33:09;;;;;;;21.70;10.40;;;11.10;99.90;;;;;;5013522;28;20351;-79
2021/10/17 10:35:36;;;;;;;19.38;9.43;;;11.20;99.90;;;;;;5012801;28;20112;-79
2021/10/17 10:38:02;;;;;;;23.60;10.52;;;11.30;99.90;;;;;;5013358;28;20207;-79
2021/10/17 10:40:28;;;;;;;21.90;10.85;;;11.30;99.90;;;;;;5013834;28;20075;-79
2021/10/17 10:42:54;;;;;;;22.25;10.80;;;11.30;99.90;;;;;;5012519;28;20478;-81
2021/10/17 10:45:26;;;;;;;23.08;10.32;;;11.30;99.90;;;;;;5029506;28;20085;-79
2021/10/17 10:48:10;;;;;;;21.15;10.63;;;11.30;99.90;;;;;;5013791;28;20018;-78
2021/10/17 10:50:37;;;;;;;21.83;10.52;;;11.20;99.90;;;;;;5011857;28;20029;-78
2021/10/17 10:53:03;;;;;;;20.60;9.98;;;11.30;99.90;;;;;;5012307;28;20030;-78
2021/10/17 10:55:52;;;;;;;17.30;9.75;;;11.30;99.90;;;;;;5012557;28;20371;-78
2021/10/17 10:58:32;;;;;;;20.45;9.82;;;11.30;99.90;;;;;;5011233;28;20028;-78
2021/10/17 11:00:58;;;;;;;21.83;9.80;;;11.30;99.90;;;;;;5012691;28;20044;-77
2021/10/17 11:03:26;;;;;;;24.58;10.25;;;11.30;99.90;;;;;;5011263;28;20072;-78
2021/10/17 11:06:04;;;;;;;16.08;9.23;;;11.30;99.90;;;;;;5012216;28;20026;-77
2021/10/17 11:08:30;;;;;;;19.63;9.43;;;11.30;99.90;;;;;;5012876;28;20029;-76
2021/10/17 11:10:55;;;;;;;20.67;9.95;;;11.30;99.80;;;;;;5028614;28;20454;-78
2021/10/17 11:13:29;;;;;;;19.33;10.25;;;11.30;99.70;;;;;;5012717;28;20087;-78
2021/10/17 11:15:55;;;;;;;20.73;10.07;;;11.20;99.80;;;;;;5028284;28;20029;-77
2021/10/17 11:18:30;;;;;;;19.60;9.43;;;11.20;99.70;;;;;;5011150;28;20348;-80
2021/10/17 11:20:56;;;;;;;15.57;8.68;;;11.20;99.60;;;;;;5025652;28;20022;-77
2021/10/17 11:23:28;;;;;;;21.27;10.50;;;11.20;99.60;;;;;;5011352;28;20018;-78
2021/10/17 11:25:55;;;;;;;;;;;11.10;99.50;;;;;;5010855;28;20103;-80
2021/10/17 11:28:26;;;;;;;21.40;9.15;;;11.20;99.70;;;;;;5011260;28;19960;-77
2021/10/17 11:31:14;;;;;;;20.67;10.02;;;11.10;99.90;;;;;;5028002;28;20076;-78
2021/10/17 11:33:42;;;;;;;23.58;9.98;;;11.20;99.90;;;;;;5011491;28;20026;-78
2021/10/17 11:36:10;;;;;;;23.50;10.68;;;11.20;99.90;;;;;;5011968;28;20447;-77
2021/10/17 11:38:36;;;;;;;18.98;9.25;;;11.20;99.90;;;;;;5008823;28;20018;-78
2021/10/17 11:41:20;;;;;;;19.48;9.10;;;11.20;99.90;;;;;;5027966;28;20032;-78
2021/10/17 11:43:48;;;;;;;15.95;7.88;;;11.20;99.70;;;;;;5011086;28;20018;-78
2021/10/17 11:46:27;;;;;;;15.93;8.32;;;11.10;99.50;;;;;;5025548;28;20032;-79
2021/10/17 11:49:05;;;;;;;17.45;7.80;;;11.10;99.60;;;;;;5009121;28;20026;-78
2021/10/17 11:51:31;;;;;;;16.77;7.85;;;11.10;99.60;;;;;;5010361;28;20022;-77
2021/10/17 11:53:58;;;;;;;16.10;8.40;;;11.20;99.60;;;;;;5012849;28;20029;-77
2021/10/17 11:56:24;;;;;;;17.42;8.43;;;11.20;99.30;;;;;;5009543;28;20048;-82
2021/10/17 11:58:50;;;;;;;19.30;8.63;;;11.20;99.20;;;;;;5012715;28;20021;-77
2021/10/17 12:01:17;;;;;;;18.30;8.50;;;11.20;99.30;;;;;;5012113;28;20052;-80
2021/10/17 12:03:56;;;;;;;17.52;8.95;;;11.20;99.20;;;;;;5011514;28;20076;-79
2021/10/17 12:06:23;;;;;;;20.85;8.57;;;11.20;99.10;;;;;;5010628;28;20044;-81
2021/10/17 12:08:53;;;;;;;20.90;8.95;;;11.20;99.20;;;;;;5012555;28;20022;-79
2021/10/17 12:11:20;;;;;;;19.30;8.82;;;11.20;99.40;;;;;;5011409;28;20021;-80
2021/10/17 12:13:54;;;;;;;19.42;9.40;;;11.30;99.20;;;;;;5012800;28;20018;-80
2021/10/17 12:16:22;;;;;;;18.40;8.68;;;11.30;99.10;;;;;;5014212;28;20030;-80
2021/10/17 12:18:53;;;;;;;19.27;8.98;;;11.30;99.00;;;;;;5014925;28;20026;-80
2021/10/17 12:21:27;;;;;;;20.38;9.35;;;11.30;98.90;;;;;;5015706;28;20462;-81
2021/10/17 12:23:53;;;;;;;18.38;9.20;;;11.30;99.00;;;;;;5014305;28;20518;-79
2021/10/17 12:26:25;;;;;;;20.38;10.15;;;11.30;99.10;;;;;;5016137;28;20033;-81
2021/10/17 12:29:15;;;;;;;21.13;9.85;;;11.30;99.10;;;;;;5029325;28;20028;-80
2021/10/17 12:31:50;;;;;;;21.73;9.90;;;11.30;99.20;;;;;;5047684;28;20053;-82
2021/10/17 12:34:16;;;;;;;21.38;9.40;;;11.30;99.20;;;;;;5014093;28;20017;-81
2021/10/17 12:36:42;;;;;;;22.80;10.05;;;11.20;99.40;;;;;;5031664;28;20058;-79